Latest Weather Observations for Macquarie Island*

IDT60801

Issued at 1:02 pm EST Friday 18 August 2017 (issued every 30 minutes, with the page automatically refreshed every 10 minutes)

About weather observations | Map of weather stations | Latest weather observations for ANT | Other Formats
Station Details ID: 300004 Name: MACQUARIE ISLAND Lat: -54.50 Lon: 158.94 Height: 6.0 m
Data from the previous 72 hours. | See also: Recent months at Macquarie Island*
Date/Time
EST
Temp
°C
App
Temp
°C
Dew
Point
°C
Rel
Hum
%
Delta-T
°C
Wind Press
QNH
hPa
Press
MSL
hPa
Rain since
9am
mm
Dir  Spd
km/h
Gust
km/h
Spd
kts
Gust
kts
18/01:00pm 1.6 -4.1 -3.7 68 1.9 S 17 22 9 12 995.7 - 0.2
18/12:30pm 1.6 -4.7 -3.7 68 1.9 S 20 28 11 15 995.2 - 0.2
18/12:00pm 1.2 -4.1 -3.5 71 1.7 S 15 20 8 11 995.0 995.3 0.2
18/11:30am 1.1 -5.6 -4.3 67 1.8 S 22 32 12 17 994.7 - 0.2
18/11:00am 0.6 -6.2 -5.0 66 1.8 S 22 32 12 17 994.5 - 0.2
18/10:30am 0.5 -7.1 -5.1 66 1.8 S 26 37 14 20 994.1 - 0.2
18/10:00am 0.4 -6.8 -5.2 66 1.8 S 24 41 13 22 993.6 - 0.2
18/09:30am -0.2 -7.5 -5.8 66 1.7 S 24 33 13 18 993.2 - 0.0
18/09:00am -0.2 -7.4 -5.2 69 1.6 SSW 24 35 13 19 992.7 993.0 3.6
18/08:32am -0.6 -9.0 -6.0 67 1.6 S 30 48 16 26 992.1 - 3.6
18/08:30am -0.5 -9.3 -5.9 67 1.6 S 32 48 17 26 992.1 - 3.6
18/08:08am -0.4 -8.7 -5.0 71 1.4 S 30 50 16 27 991.5 - 3.6
18/08:00am -0.5 -8.4 -5.1 71 1.4 S 28 44 15 24 991.4 - 3.6
18/07:30am -0.8 -7.9 -4.7 75 1.2 SSW 24 39 13 21 990.8 - 3.6
18/07:00am -0.9 -8.4 -4.8 75 1.2 S 26 48 14 26 990.1 - 3.6
18/06:35am -0.5 -8.7 -4.0 77 1.1 S 30 48 16 26 989.3 - 3.6
18/06:30am -1.2 -9.9 -5.4 73 1.2 S 32 46 17 25 989.2 - 3.6
18/06:00am -0.6 -9.2 -4.3 76 1.2 S 32 50 17 27 988.2 988.5 3.6
18/05:55am -0.6 -9.2 -4.1 77 1.1 S 32 50 17 27 988.0 - 3.6
18/05:30am -0.5 -9.1 -4.0 77 1.1 S 32 43 17 23 987.4 - 3.6
18/05:00am -0.5 -9.6 -4.0 77 1.1 SSW 35 52 19 28 986.6 - 3.6
18/04:46am -0.3 -9.4 -3.7 78 1.1 S 35 54 19 29 986.3 - 3.6
18/04:30am 0.0 -9.0 -2.9 81 1.0 S 35 46 19 25 985.6 - 3.6
18/04:00am -0.4 -8.4 -2.3 87 0.6 S 30 43 16 23 985.0 - 3.6
18/03:48am -0.5 -9.5 -2.4 87 0.6 S 35 54 19 29 984.5 - 3.6
18/03:30am -0.1 -8.0 -1.5 90 0.5 S 30 43 16 23 984.0 - 3.4
18/03:00am 0.4 -7.4 -1.0 90 0.5 S 30 43 16 23 983.2 983.5 3.4
18/02:30am 0.6 -6.8 -1.0 89 0.6 S 28 44 15 24 982.4 - 3.4
18/02:00am 0.6 -6.4 -0.8 90 0.5 S 26 35 14 19 981.5 - 3.4
18/01:30am 1.3 -5.6 0.0 91 0.5 S 26 33 14 18 980.5 - 3.4
18/01:00am 1.5 -6.1 0.3 92 0.4 S 30 43 16 23 979.7 - 3.0
18/12:30am 1.6 -5.6 0.4 92 0.4 S 28 35 15 19 978.9 - 2.4
18/12:00am 2.5 -3.9 1.0 90 0.6 S 24 33 13 18 978.0 978.3 1.8
 
Date/Time
EST
Temp
°C
App
Temp
°C
Dew
Point
°C
Rel
Hum
%
Delta-T
°C
Wind Press
QNH
hPa
Press
MSL
hPa
Rain since
9am
mm
Dir  Spd
km/h
Gust
km/h
Spd
kts
Gust
kts
17/11:30pm 3.0 -3.4 1.2 88 0.7 S 24 35 13 19 977.2 - 1.4
17/11:00pm 4.0 -0.9 2.2 88 0.7 S 17 24 9 13 976.3 - 1.2
17/10:30pm 4.4 0.0 2.8 89 0.6 S 15 20 8 11 975.5 - 1.0
17/10:00pm 4.9 1.8 3.6 91 0.5 SSW 9 15 5 8 974.9 - 0.8
17/09:30pm 4.9 1.0 3.6 91 0.5 WSW 13 22 7 12 974.3 - 0.6
17/09:00pm 4.9 1.0 3.6 91 0.6 WSW 13 28 7 15 973.8 974.1 0.4
17/08:30pm 4.9 1.4 3.6 91 0.5 SW 11 17 6 9 973.5 - 0.2
17/08:00pm 4.8 -1.6 3.3 90 0.6 W 26 39 14 21 972.6 - 0.2
17/07:30pm 4.7 -2.8 3.4 91 0.5 W 32 41 17 22 972.0 - 0.2
17/07:00pm 4.9 -2.7 3.9 93 0.4 W 33 44 18 24 971.3 - 0.0
17/06:30pm 5.0 -3.0 4.0 93 0.4 W 35 44 19 24 970.7 - 0.0
17/06:00pm 4.9 -3.1 3.7 92 0.5 W 35 50 19 27 970.1 970.4 0.0
17/05:30pm 4.8 -3.6 3.8 93 0.4 W 37 46 20 25 969.8 - 0.0
17/05:00pm 4.6 -4.2 3.7 94 0.4 W 39 50 21 27 969.3 - 0.0
17/04:30pm 4.6 -5.5 3.7 94 0.4 W 46 57 25 31 968.5 - 0.0
17/04:00pm 4.8 -6.0 3.9 94 0.4 W 50 63 27 34 967.7 - 0.0
17/03:35pm 4.8 -6.4 3.9 94 0.4 W 52 70 28 38 967.1 - 0.0
17/03:30pm 4.9 -6.3 4.0 94 0.4 W 52 69 28 37 967.0 - 0.0
17/03:00pm 4.9 -7.1 4.0 94 0.4 W 56 69 30 37 966.6 966.9 0.0
17/02:30pm 4.8 -6.0 3.9 94 0.4 W 50 65 27 35 966.6 - 0.0
17/02:00pm 4.9 -4.5 4.2 95 0.3 W 43 69 23 37 966.2 - 0.0
17/01:30pm 5.0 -5.0 4.3 95 0.3 W 46 65 25 35 965.8 - 0.0
17/01:00pm 5.2 -3.5 4.3 94 0.4 W 39 59 21 32 965.6 - 0.0
17/12:39pm 5.5 -2.4 4.6 94 0.4 W 35 56 19 30 965.3 - 0.0
17/12:30pm 5.8 -2.0 4.9 94 0.4 WSW 35 52 19 28 965.3 - 0.0
17/12:08pm 5.8 -2.0 4.9 94 0.4 WSW 35 54 19 29 965.4 - 0.0
17/12:00pm 5.9 -1.5 5.0 94 0.4 WSW 33 50 18 27 965.4 965.7 0.0
17/11:30am 6.1 -1.1 5.1 93 0.4 WSW 32 50 17 27 965.7 - 0.0
17/11:26am 6.2 -1.0 5.2 93 0.4 WSW 32 50 17 27 965.7 - 0.0
17/11:00am 6.3 -0.8 5.3 93 0.4 WSW 32 41 17 22 965.8 - 0.0
17/10:47am 6.2 -0.6 5.2 93 0.4 WSW 30 48 16 26 966.0 - 0.0
17/10:30am 6.5 0.2 5.5 93 0.4 W 28 37 15 20 966.1 - 0.0
17/10:15am 6.7 0.4 5.8 94 0.4 WSW 28 43 15 23 966.2 - 0.0
17/10:00am 6.5 1.9 5.8 95 0.3 WSW 19 24 10 13 966.5 - 0.0
17/09:30am 5.7 3.4 5.0 95 0.3 S 6 7 3 4 967.1 - 0.0
17/09:00am 5.7 2.5 5.0 95 0.3 S 11 13 6 7 967.3 967.6 5.8
17/08:30am 5.9 2.7 5.2 95 0.3 SSE 11 17 6 9 967.5 - 5.8
17/08:00am 5.7 2.1 5.0 95 0.3 S 13 19 7 10 967.9 - 5.6
17/07:30am 5.4 1.0 4.7 95 0.3 SSE 17 20 9 11 968.2 - 5.4
17/07:00am 5.6 0.2 4.7 94 0.4 ESE 22 26 12 14 968.7 - 4.8
17/06:30am 5.9 3.1 5.0 94 0.4 SE 9 17 5 9 969.2 - 4.4
17/06:00am 5.7 1.7 4.8 94 0.4 SSE 15 20 8 11 969.6 969.9 4.2
17/05:30am 5.7 0.7 4.8 94 0.4 SSE 20 24 11 13 970.2 - 4.0
17/05:00am 5.6 -1.3 4.7 94 0.4 S 30 35 16 19 970.7 - 4.0
17/04:30am 5.7 -1.2 4.8 94 0.4 S 30 37 16 20 971.6 - 4.0
17/04:00am 5.5 -0.3 4.5 93 0.4 S 24 28 13 15 972.6 - 3.8
17/03:30am 5.4 0.4 4.4 93 0.4 SSE 20 22 11 12 973.7 - 3.8
17/03:00am 5.4 1.3 4.4 93 0.4 S 15 19 8 10 974.5 974.8 3.6
17/02:30am 5.5 1.8 4.3 92 0.5 SSE 13 15 7 8 975.3 - 3.2
17/02:00am 5.7 2.4 4.5 92 0.5 SE 11 17 6 9 975.8 - 3.0
17/01:30am 5.9 2.6 4.7 92 0.5 NNE 11 24 6 13 976.5 - 3.0
17/01:00am 6.2 2.6 5.2 93 0.4 ESE 13 22 7 12 977.0 - 3.0
17/12:30am 6.4 3.3 5.4 93 0.4 NNW 11 22 6 12 977.5 - 3.0
17/12:00am 6.4 2.1 5.4 93 0.4 N 17 26 9 14 978.0 978.3 3.0
 
Date/Time
EST
Temp
°C
App
Temp
°C
Dew
Point
°C
Rel
Hum
%
Delta-T
°C
Wind Press
QNH
hPa
Press
MSL
hPa
Rain since
9am
mm
Dir  Spd
km/h
Gust
km/h
Spd
kts
Gust
kts
16/11:30pm 6.6 -0.7 5.6 93 0.4 N 33 52 18 28 978.2 - 3.0
16/11:00pm 6.5 -0.8 5.5 93 0.4 N 33 56 18 30 978.7 - 3.0
16/10:30pm 6.7 -2.6 5.7 93 0.4 N 44 69 24 37 979.0 - 3.0
16/10:00pm 6.6 -2.6 5.6 93 0.4 N 43 61 23 33 979.0 - 3.0
16/09:30pm 6.4 -3.8 5.4 93 0.4 N 48 70 26 38 979.5 - 2.8
16/09:01pm 6.6 -2.8 5.6 93 0.4 N 44 67 24 36 979.5 - 2.6
16/09:00pm 6.5 -2.7 5.5 93 0.5 N 43 59 23 32 979.6 979.9 2.6
16/08:30pm 6.2 -3.6 5.2 93 0.4 N 46 59 25 32 979.8 - 2.4
16/08:00pm 6.4 -4.2 5.0 91 0.6 N 50 70 27 38 979.8 - 2.2
16/07:30pm 6.3 -3.5 5.1 92 0.5 N 46 67 25 36 979.9 - 2.2
16/07:19pm 6.1 -3.4 4.9 92 0.5 N 44 63 24 34 980.0 - 2.0
16/07:00pm 6.1 -3.4 4.9 92 0.5 N 44 57 24 31 980.0 - 2.0
16/06:30pm 6.2 -4.5 4.8 91 0.6 N 50 67 27 36 980.1 - 1.6
16/06:00pm 6.0 -4.7 4.8 92 0.5 N 50 69 27 37 980.2 980.5 1.6
16/05:30pm 6.3 -4.4 4.8 90 0.7 N 50 69 27 37 980.4 - 1.6
16/05:10pm 6.4 -3.4 5.2 92 0.5 N 46 67 25 36 980.6 - 1.4
16/05:00pm 6.4 -3.4 5.2 92 0.5 N 46 59 25 32 980.6 - 1.4
16/04:30pm 6.5 -3.3 5.5 93 0.4 N 46 69 25 37 981.0 - 1.2
16/04:00pm 6.3 -3.1 5.3 93 0.4 N 44 65 24 35 981.5 - 0.6
16/03:30pm 6.4 -3.5 5.0 91 0.6 N 46 69 25 37 981.7 - 0.2
16/03:00pm 6.5 -3.4 5.0 90 0.7 N 46 65 25 35 981.9 982.2 0.0
16/02:30pm 6.5 -3.4 4.7 88 0.8 N 46 65 25 35 982.1 - 0.0
16/02:00pm 6.4 -3.0 4.6 88 0.8 N 43 63 23 34 982.4 - 0.0
16/01:51pm 6.4 -3.0 4.6 88 0.8 N 43 63 23 34 982.4 - 0.0
16/01:30pm 6.3 -3.1 4.6 89 0.7 N 43 59 23 32 982.7 - 0.0
16/01:00pm 6.3 -3.1 4.6 89 0.7 N 43 54 23 29 983.1 - 0.0
16/12:30pm 6.2 -2.8 4.7 90 0.6 N 41 52 22 28 983.5 - 0.0
16/12:00pm 6.2 -2.4 4.7 90 0.7 N 39 50 21 27 983.9 984.2 0.0
16/11:30am 6.2 -2.0 4.8 91 0.6 N 37 48 20 26 984.2 - 0.0
16/11:00am 6.0 -2.2 4.8 92 0.5 N 37 48 20 26 984.7 - 0.0
16/10:30am 5.9 -2.3 4.7 92 0.5 N 37 52 20 28 985.1 - 0.0
16/10:00am 6.1 -2.5 4.6 90 0.6 N 39 52 21 28 985.5 - 0.0
16/09:30am 6.0 -2.0 4.0 87 0.8 N 35 48 19 26 985.9 - 0.0
16/09:00am 5.7 -1.3 3.9 88 0.8 N 30 41 16 22 986.0 986.3 2.6
16/08:30am 5.2 -0.7 3.9 91 0.5 N 24 26 13 14 986.3 - 2.6
16/08:00am 4.9 -2.1 4.0 94 0.4 N 30 39 16 21 986.4 - 2.6
16/07:30am 5.0 -2.3 4.3 95 0.3 N 32 35 17 19 986.7 - 2.6
16/07:00am 5.0 -2.4 4.1 94 0.4 N 32 39 17 21 986.8 - 2.4
16/06:30am 4.9 -1.7 4.2 95 0.3 N 28 35 15 19 986.9 - 2.4
16/06:00am 4.9 -2.4 4.3 96 0.3 N 32 39 17 21 987.0 987.3 2.4
16/05:30am 5.1 -1.8 4.4 95 0.3 N 30 35 16 19 987.1 - 2.4
16/05:00am 5.3 -1.2 4.6 95 0.3 N 28 35 15 19 987.2 - 2.4
16/04:30am 5.3 -2.2 4.4 94 0.4 NNE 33 44 18 24 987.2 - 2.4
16/04:00am 5.1 -2.2 4.4 95 0.3 NNE 32 44 17 24 987.5 - 2.4
16/03:30am 5.0 -0.1 4.3 95 0.3 N 20 30 11 16 987.9 - 2.4
16/03:00am 4.8 1.0 3.9 94 0.4 E 13 20 7 11 988.3 988.6 2.4
16/02:30am 5.1 1.3 4.1 93 0.4 NNE 13 32 7 17 988.5 - 2.4
16/02:01am 5.2 -1.4 4.0 92 0.5 N 28 46 15 25 989.4 - 2.4
16/02:00am 5.2 -1.4 4.0 92 0.5 N 28 43 15 23 989.4 - 2.4
16/01:30am 5.4 -2.3 3.6 88 0.8 N 33 57 18 31 990.0 - 2.4
16/01:18am 5.5 -3.0 3.3 86 0.9 N 37 57 20 31 990.3 - 2.4
16/01:00am 5.5 -2.2 3.3 86 0.9 N 33 44 18 24 990.7 - 2.4
16/12:30am 5.6 -2.6 2.9 83 1.1 N 35 54 19 29 991.1 - 2.4
16/12:08am 5.5 -3.1 2.8 83 1.1 N 37 56 20 30 991.1 - 2.4
16/12:00am 5.5 -2.6 3.2 85 1.0 N 35 44 19 24 991.4 991.7 2.4
 
Date/Time
EST
Temp
°C
App
Temp
°C
Dew
Point
°C
Rel
Hum
%
Delta-T
°C
Wind Press
QNH
hPa
Press
MSL
hPa
Rain since
9am
mm
Dir  Spd
km/h
Gust
km/h
Spd
kts
Gust
kts
15/11:30pm 5.6 -2.5 3.1 84 1.0 N 35 48 19 26 991.9 - 2.4
15/11:00pm 5.7 -3.1 3.7 87 0.8 N 39 50 21 27 992.1 - 2.4
15/10:30pm 5.4 -2.2 3.7 89 0.7 N 33 46 18 25 992.2 - 2.4
15/10:00pm 5.4 -0.8 4.2 92 0.5 N 26 33 14 18 992.4 - 2.4
15/09:30pm 5.5 -0.7 4.5 93 0.4 N 26 33 14 18 992.7 - 2.4
15/09:00pm 5.6 0.6 4.7 94 0.4 N 20 24 11 13 992.8 993.1 2.4
15/08:30pm 5.5 0.7 4.6 94 0.4 N 19 26 10 14 993.0 - 2.4
15/08:00pm 5.5 0.5 4.6 94 0.4 N 20 28 11 15 993.3 - 2.4
15/07:30pm 5.6 -0.1 4.7 94 0.4 N 24 28 13 15 993.5 - 2.4
15/07:00pm 5.8 -0.3 4.9 94 0.4 N 26 33 14 18 993.4 - 2.4
15/06:30pm 6.1 -1.3 5.2 94 0.4 N 33 43 18 23 993.4 - 2.4
15/06:00pm 6.1 -0.6 5.4 95 0.3 N 30 37 16 20 993.5 993.8 2.4
15/05:30pm 6.0 -0.8 5.3 95 0.3 N 30 39 16 21 993.6 - 2.4
15/05:00pm 6.0 -0.4 5.3 95 0.3 N 28 35 15 19 993.6 - 2.4
15/04:30pm 6.0 0.4 5.4 96 0.3 N 24 32 13 17 993.6 - 2.2
15/04:00pm 5.9 2.0 5.2 95 0.3 NNE 15 24 8 13 993.8 - 2.2
15/03:30pm 4.6 1.6 4.0 96 0.3 SSE 9 13 5 7 994.0 - 2.2
15/03:00pm 4.5 -0.4 3.9 96 0.3 S 19 22 10 12 994.1 994.4 1.4
15/02:30pm 4.3 -0.9 3.7 96 0.2 S 20 24 11 13 994.3 - 1.2
15/02:00pm 4.2 -1.4 3.6 96 0.2 S 22 24 12 13 994.5 - 1.2
15/01:30pm 4.0 -2.0 3.4 96 0.2 S 24 28 13 15 994.6 - 1.0

Other Formats:

Comma delimited format used in spreadsheet applications
http://www.bom.gov.au/fwo/IDT60803/IDT60803.94998.axf

JavaScript Object Notation format (JSON) in row-major order
http://www.bom.gov.au/fwo/IDT60803/IDT60803.94998.json